createdAt,value
2019-04-23T00:01:31.967Z,10.41
2019-04-23T00:04:04.652Z,10.32
2019-04-23T00:06:32.238Z,10.37
2019-04-23T00:09:10.551Z,10.17
2019-04-23T00:11:35.112Z,10.17
2019-04-23T00:14:05.998Z,10.18
2019-04-23T00:16:42.570Z,10.15
2019-04-23T00:19:10.303Z,10.11
2019-04-23T00:22:13.868Z,9.98
2019-04-23T00:25:19.274Z,9.98
2019-04-23T00:35:00.791Z,9.90
2019-04-23T00:42:40.448Z,9.81
2019-04-23T00:44:57.338Z,9.77
2019-04-23T00:47:46.708Z,9.82
2019-04-23T00:50:12.134Z,9.79
2019-04-23T00:52:45.712Z,9.64
2019-04-23T00:57:35.834Z,9.55
2019-04-23T01:00:20.419Z,9.70
2019-04-23T01:02:37.303Z,9.61
2019-04-23T01:05:11.701Z,9.61
2019-04-23T01:07:39.759Z,9.61
2019-04-23T01:10:20.864Z,9.63
2019-04-23T01:15:28.849Z,9.73
2019-04-23T01:20:36.814Z,9.68
2019-04-23T01:22:44.283Z,9.67
2019-04-23T01:25:39.482Z,9.72
2019-04-23T01:28:31.308Z,9.71
2019-04-23T01:31:02.490Z,9.73
2019-04-23T01:41:07.876Z,9.84
2019-04-23T01:43:38.153Z,9.89
2019-04-23T01:46:08.322Z,9.82
2019-04-23T01:48:40.479Z,9.86
2019-04-23T01:51:02.315Z,9.91
2019-04-23T01:53:42.006Z,9.88
2019-04-23T01:56:11.429Z,9.83
2019-04-23T01:58:46.985Z,9.90
2019-04-23T02:01:11.619Z,9.82
2019-04-23T02:03:50.113Z,9.95
2019-04-23T02:11:20.160Z,9.99
2019-04-23T02:14:00.293Z,10.06
2019-04-23T02:16:24.588Z,10.02
2019-04-23T02:19:12.937Z,10.04
2019-04-23T02:21:22.538Z,10.07
2019-04-23T02:23:57.193Z,10.10
2019-04-23T02:26:34.258Z,10.09
2019-04-23T02:29:14.602Z,10.07
2019-04-23T02:34:25.375Z,10.15
2019-04-23T02:36:45.161Z,10.12
2019-04-23T02:39:12.188Z,10.15
2019-04-23T02:41:53.905Z,10.16
2019-04-23T02:51:59.349Z,10.08
2019-04-23T02:54:38.016Z,10.16
2019-04-23T02:56:51.474Z,10.13
2019-04-23T02:59:47.178Z,10.14
2019-04-23T03:02:17.497Z,10.16
2019-04-23T03:09:36.745Z,10.21
2019-04-23T03:12:08.257Z,10.18
2019-04-23T03:17:19.062Z,9.88
2019-04-23T03:25:35.916Z,9.94
2019-04-23T03:28:25.292Z,9.78
2019-04-23T03:31:57.689Z,9.70
2019-04-23T03:43:33.230Z,8.92
2019-04-23T03:46:12.274Z,8.69
2019-04-23T03:48:34.681Z,8.66
2019-04-23T03:50:58.279Z,8.67
2019-04-23T03:56:13.466Z,8.51
2019-04-23T03:58:41.415Z,8.35
2019-04-23T04:01:06.770Z,8.32
2019-04-23T04:04:03.818Z,8.28
2019-04-23T04:06:13.855Z,8.21
2019-04-23T04:08:36.531Z,8.17
2019-04-23T04:16:07.390Z,8.02
2019-04-23T04:18:45.848Z,7.80
2019-04-23T04:23:58.224Z,7.68
2019-04-23T04:26:20.786Z,7.66
2019-04-23T04:28:51.140Z,7.69
2019-04-23T04:31:25.777Z,7.74
2019-04-23T04:36:26.463Z,7.69
2019-04-23T04:38:54.855Z,7.61
2019-04-23T04:44:19.002Z,7.45
2019-04-23T04:54:16.204Z,7.51
2019-04-23T04:59:03.688Z,7.56
2019-04-23T05:04:16.520Z,7.59
2019-04-23T05:06:46.500Z,7.55
2019-04-23T05:09:13.811Z,7.42
2019-04-23T05:11:47.773Z,7.44
2019-04-23T05:14:08.158Z,7.56
2019-04-23T05:16:48.191Z,7.56
2019-04-23T05:21:56.891Z,7.44
2019-04-23T05:26:41.552Z,7.53
2019-04-23T05:31:47.130Z,7.34
2019-04-23T05:34:24.382Z,7.27
2019-04-23T05:36:54.202Z,7.16
2019-04-23T05:39:31.275Z,7.16
2019-04-23T05:41:57.202Z,7.19
2019-04-23T05:44:29.979Z,7.22
2019-04-23T05:47:02.187Z,7.19
2019-04-23T05:49:31.925Z,7.21
2019-04-23T05:51:58.901Z,7.20
2019-04-23T05:54:36.796Z,7.33
2019-04-23T05:57:00.289Z,7.29
2019-04-23T05:59:37.915Z,7.36
2019-04-23T06:02:19.847Z,7.43
2019-04-23T06:04:38.988Z,7.43
2019-04-23T06:07:22.128Z,7.45
2019-04-23T06:09:46.580Z,7.39
2019-04-23T06:12:13.523Z,7.28
2019-04-23T06:14:47.379Z,7.37
2019-04-23T06:17:15.014Z,7.40
2019-04-23T06:19:52.938Z,7.38
2019-04-23T06:32:24.238Z,7.30
2019-04-23T06:34:53.160Z,7.24
2019-04-23T06:38:04.783Z,7.19
2019-04-23T06:42:29.595Z,7.30
2019-04-23T06:45:01.077Z,7.23
2019-04-23T06:47:28.923Z,7.19
2019-04-23T06:49:58.158Z,7.06
2019-04-23T06:52:25.432Z,7.17
2019-04-23T06:55:18.478Z,7.45
2019-04-23T06:57:33.584Z,7.48
2019-04-23T07:07:55.230Z,7.46
2019-04-23T07:10:33.272Z,7.46
2019-04-23T07:12:50.715Z,7.28
2019-04-23T07:15:42.852Z,7.31
2019-04-23T07:17:51.239Z,7.45
2019-04-23T07:20:21.576Z,7.48
2019-04-23T07:22:56.969Z,7.43
2019-04-23T07:27:56.897Z,7.47
2019-04-23T07:30:38.503Z,7.57
2019-04-23T07:32:57.220Z,7.78
2019-04-23T07:35:21.244Z,7.74
2019-04-23T07:38:01.830Z,7.55
2019-04-23T07:40:54.595Z,7.68
2019-04-23T07:43:30.758Z,7.78
2019-04-23T07:46:16.892Z,7.79
2019-04-23T07:48:37.175Z,7.91
2019-04-23T07:51:14.208Z,8.11
2019-04-23T07:53:48.218Z,8.18
2019-04-23T07:56:13.149Z,8.32
2019-04-23T07:58:39.360Z,8.52
2019-04-23T08:01:23.040Z,8.39
2019-04-23T08:03:48.136Z,8.54
2019-04-23T08:06:19.470Z,8.49
2019-04-23T08:08:56.775Z,8.55
2019-04-23T08:11:33.251Z,8.84
2019-04-23T08:13:56.980Z,9.23
2019-04-23T08:16:38.290Z,9.29
2019-04-23T08:19:14.029Z,9.19
2019-04-23T08:24:38.844Z,9.18
2019-04-23T08:29:44.400Z,9.10
2019-04-23T08:34:58.745Z,9.74
2019-04-23T08:39:52.411Z,10.22
2019-04-23T08:42:36.362Z,10.15
2019-04-23T08:48:12.439Z,9.98
2019-04-23T08:50:32.685Z,9.77
2019-04-23T08:53:19.984Z,9.68
2019-04-23T08:55:38.757Z,9.64
2019-04-23T08:58:06.178Z,9.83
2019-04-23T09:00:45.617Z,9.92
2019-04-23T09:03:22.008Z,10.08
2019-04-23T09:15:49.735Z,9.39
2019-04-23T09:18:21.031Z,9.27
2019-04-23T09:20:48.190Z,9.45
2019-04-23T09:23:32.543Z,9.77
2019-04-23T09:25:54.163Z,9.91
2019-04-23T09:28:38.447Z,9.84
2019-04-23T09:31:04.442Z,9.83
2019-04-23T09:34:00.049Z,9.78
2019-04-23T09:37:00.143Z,10.00
2019-04-23T09:42:22.702Z,10.28
2019-04-23T09:45:14.521Z,10.39
2019-04-23T09:48:11.707Z,10.37
2019-04-23T09:50:50.791Z,10.24
2019-04-23T09:56:01.015Z,9.82
2019-04-23T09:58:15.362Z,9.65
2019-04-23T10:01:11.954Z,9.80
2019-04-23T10:03:25.476Z,9.77
2019-04-23T10:05:54.845Z,9.80
2019-04-23T10:08:21.751Z,9.78
2019-04-23T10:10:47.280Z,9.79
2019-04-23T10:13:17.957Z,9.91
2019-04-23T10:15:49.638Z,9.71
2019-04-23T10:18:20.134Z,9.68
2019-04-23T10:20:49.955Z,9.85
2019-04-23T10:23:21.171Z,10.03
2019-04-23T10:25:52.080Z,10.22
2019-04-23T10:28:31.834Z,10.40
2019-04-23T10:31:02.728Z,10.52
2019-04-23T10:33:32.340Z,10.61
2019-04-23T10:36:08.504Z,10.26
2019-04-23T10:38:34.604Z,10.46
2019-04-23T10:41:04.555Z,10.72
2019-04-23T10:43:39.182Z,10.69
2019-04-23T10:46:49.263Z,10.44
2019-04-23T10:49:47.502Z,10.48
2019-04-23T10:52:17.005Z,10.59
2019-04-23T10:54:43.308Z,10.46
2019-04-23T10:57:13.753Z,10.59
2019-04-23T11:07:28.413Z,10.43
2019-04-23T11:09:55.711Z,10.68
2019-04-23T11:12:37.503Z,10.54
2019-04-23T11:15:32.208Z,10.78
2019-04-23T11:20:30.681Z,10.62
2019-04-23T11:22:50.978Z,10.78
2019-04-23T11:25:31.288Z,10.99
2019-04-23T11:28:02.550Z,10.85
2019-04-23T11:33:09.058Z,10.57
2019-04-23T11:35:39.687Z,10.48
2019-04-23T11:38:22.036Z,10.45
2019-04-23T11:43:09.704Z,10.22
2019-04-23T11:48:34.005Z,10.13
2019-04-23T11:51:07.858Z,10.28
2019-04-23T11:53:10.386Z,10.59
2019-04-23T11:58:26.981Z,11.14
2019-04-23T12:01:11.631Z,11.14
2019-04-23T12:03:54.036Z,11.21
2019-04-23T12:06:36.941Z,11.05
2019-04-23T12:09:17.409Z,11.06
2019-04-23T12:14:40.583Z,11.05
2019-04-23T12:22:16.450Z,11.72
2019-04-23T12:25:03.495Z,11.78
2019-04-23T12:27:25.314Z,11.55
2019-04-23T12:29:46.307Z,11.46
2019-04-23T12:37:49.393Z,11.86
2019-04-23T12:50:38.064Z,11.07
2019-04-23T12:52:46.884Z,11.09
2019-04-23T12:57:46.855Z,10.67
2019-04-23T13:00:23.312Z,10.73
2019-04-23T13:03:06.414Z,10.67
2019-04-23T13:07:55.655Z,10.99
2019-04-23T13:13:03.956Z,11.10
2019-04-23T13:15:29.371Z,11.15
2019-04-23T13:18:03.102Z,11.12
2019-04-23T13:20:27.313Z,11.45
2019-04-23T13:23:14.143Z,11.58
2019-04-23T13:28:21.779Z,11.52
2019-04-23T13:33:34.847Z,11.16
2019-04-23T13:36:03.089Z,11.13
2019-04-23T13:38:33.205Z,10.88
2019-04-23T13:41:01.389Z,10.96
2019-04-23T13:43:36.273Z,11.08
2019-04-23T13:46:09.928Z,11.06
2019-04-23T13:48:24.687Z,11.05
2019-04-23T13:51:19.807Z,10.99
2019-04-23T13:53:40.352Z,10.91
2019-04-23T13:56:19.260Z,10.90
2019-04-23T14:16:35.666Z,11.59
2019-04-23T14:18:58.652Z,11.58
2019-04-23T14:28:55.701Z,11.25
2019-04-23T14:31:23.990Z,11.35
2019-04-23T14:39:18.305Z,11.45
2019-04-23T14:41:26.125Z,11.42
2019-04-23T14:44:20.118Z,11.49
2019-04-23T14:49:11.216Z,11.62
2019-04-23T14:54:33.367Z,11.65
2019-04-23T14:57:03.185Z,11.53
2019-04-23T14:59:16.316Z,11.66
2019-04-23T15:01:58.237Z,11.71
2019-04-23T15:04:28.846Z,11.96
2019-04-23T15:07:12.799Z,12.03
2019-04-23T15:12:11.816Z,12.17
2019-04-23T15:14:37.524Z,12.06
2019-04-23T15:25:16.595Z,11.48
2019-04-23T15:29:31.784Z,11.50
2019-04-23T15:32:18.603Z,11.43
2019-04-23T15:34:55.821Z,11.38
2019-04-23T15:37:33.492Z,11.37
2019-04-23T15:39:56.772Z,11.39
2019-04-23T15:42:25.362Z,11.21
2019-04-23T15:44:55.725Z,11.28
2019-04-23T15:47:24.955Z,11.20
2019-04-23T15:49:59.105Z,11.24
2019-04-23T15:52:29.783Z,11.17
2019-04-23T15:57:45.090Z,11.40
2019-04-23T16:00:03.471Z,11.39
2019-04-23T16:02:03.530Z,11.29
2019-04-23T16:04:33.733Z,11.19
2019-04-23T16:07:04.535Z,11.08
2019-04-23T16:10:10.727Z,11.03
2019-04-23T16:12:31.278Z,11.01
2019-04-23T16:17:35.428Z,11.23
2019-04-23T16:20:33.410Z,11.27
2019-04-23T16:22:51.283Z,11.23
2019-04-23T16:25:22.152Z,11.28
2019-04-23T16:33:08.712Z,11.20
2019-04-23T16:38:40.810Z,11.22
2019-04-23T16:41:05.534Z,11.13
2019-04-23T16:43:33.725Z,11.10
2019-04-23T16:46:11.616Z,11.02
2019-04-23T16:48:47.823Z,10.97
2019-04-23T16:51:16.485Z,11.00
2019-04-23T16:53:36.687Z,10.99
2019-04-23T16:56:18.487Z,10.87
2019-04-23T17:03:49.778Z,10.87
2019-04-23T17:06:19.008Z,10.83
2019-04-23T17:09:07.026Z,11.02
2019-04-23T17:11:20.345Z,11.16
2019-04-23T17:13:56.314Z,11.12
2019-04-23T17:16:28.480Z,11.03
2019-04-23T17:18:57.363Z,10.83
2019-04-23T17:26:28.729Z,10.78
2019-04-23T17:29:06.486Z,10.78
2019-04-23T17:34:11.124Z,10.71
2019-04-23T17:39:32.551Z,10.72
2019-04-23T17:42:22.389Z,10.76
2019-04-23T17:45:06.152Z,10.67
2019-04-23T17:47:52.090Z,10.61
2019-04-23T17:50:25.427Z,10.59
2019-04-23T17:52:57.645Z,10.65
2019-04-23T17:55:22.358Z,10.61
2019-04-23T17:58:01.537Z,10.53
2019-04-23T18:00:33.630Z,10.54
2019-04-23T18:05:33.310Z,10.58
2019-04-23T18:08:03.348Z,10.63
2019-04-23T18:10:37.093Z,10.67
2019-04-23T18:15:27.477Z,10.68
2019-04-23T18:18:11.767Z,10.68
2019-04-23T18:21:04.833Z,10.61
2019-04-23T18:23:22.470Z,10.65
2019-04-23T18:26:05.458Z,10.66
2019-04-23T18:28:37.699Z,10.71
2019-04-23T18:31:44.550Z,10.67
2019-04-23T18:36:32.980Z,10.67
2019-04-23T18:39:06.797Z,10.63
2019-04-23T18:41:41.624Z,10.59
2019-04-23T18:44:15.511Z,10.59
2019-04-23T18:46:43.478Z,10.63
2019-04-23T18:49:11.301Z,10.64
2019-04-23T18:51:40.511Z,10.63
2019-04-23T18:54:05.479Z,10.62
2019-04-23T18:57:00.129Z,10.57
2019-04-23T18:59:24.897Z,10.52
2019-04-23T19:02:37.657Z,10.51
2019-04-23T19:07:42.992Z,10.40
2019-04-23T19:12:53.690Z,10.33
2019-04-23T19:15:31.575Z,10.29
2019-04-23T19:20:39.522Z,10.37
2019-04-23T19:23:03.175Z,10.28
2019-04-23T19:25:27.847Z,10.24
2019-04-23T19:28:33.152Z,10.23
2019-04-23T19:33:13.664Z,10.26
2019-04-23T19:40:52.102Z,10.27
2019-04-23T19:43:19.527Z,10.35
2019-04-23T19:45:55.687Z,10.27
2019-04-23T19:48:35.454Z,10.30
2019-04-23T19:50:55.431Z,10.21
2019-04-23T19:53:32.344Z,10.24
2019-04-23T19:56:08.607Z,10.16
2019-04-23T20:03:46.319Z,10.16
2019-04-23T20:06:12.909Z,10.20
2019-04-23T20:11:07.722Z,10.26
2019-04-23T20:13:49.895Z,10.35
2019-04-23T20:16:13.905Z,10.41
2019-04-23T20:21:03.449Z,10.48
2019-04-23T20:26:17.349Z,10.55
2019-04-23T20:33:03.642Z,10.54
2019-04-23T20:34:32.483Z,10.48
2019-04-23T20:36:52.775Z,10.42
2019-04-23T20:42:08.900Z,10.31
2019-04-23T20:44:39.491Z,10.31
2019-04-23T20:49:45.654Z,10.16
2019-04-23T20:52:04.778Z,10.13
2019-04-23T21:03:29.016Z,10.25
2019-04-23T21:05:50.295Z,10.29
2019-04-23T21:08:22.395Z,10.30
2019-04-23T21:13:17.267Z,10.41
2019-04-23T21:18:15.932Z,10.43
2019-04-23T21:28:40.298Z,10.56
2019-04-23T21:33:46.083Z,10.53
2019-04-23T21:36:40.420Z,10.56
2019-04-23T21:42:14.238Z,10.61
2019-04-23T21:44:47.478Z,10.55
2019-04-23T21:47:42.406Z,10.52
2019-04-23T21:50:03.081Z,10.58
2019-04-23T21:52:17.564Z,10.59
2019-04-23T21:54:49.554Z,10.62
2019-04-23T21:57:27.727Z,10.55
2019-04-23T22:05:01.013Z,10.35
2019-04-23T22:07:38.884Z,10.29
2019-04-23T22:09:57.237Z,10.20
2019-04-23T22:12:34.163Z,10.15
2019-04-23T22:14:57.723Z,10.10
2019-04-23T22:17:32.635Z,10.00
2019-04-23T22:20:11.025Z,9.98
2019-04-23T22:22:51.160Z,9.90
2019-04-23T22:25:23.695Z,9.87
2019-04-23T22:27:44.286Z,9.81
2019-04-23T22:30:04.861Z,9.82
2019-04-23T22:32:47.663Z,9.83
2019-04-23T22:37:54.985Z,9.78
2019-04-23T22:40:10.707Z,9.79
2019-04-23T22:47:58.437Z,9.81
2019-04-23T22:50:18.633Z,9.83
2019-04-23T22:52:54.091Z,9.73
2019-04-23T22:55:47.725Z,9.74
2019-04-23T23:00:16.512Z,9.70
2019-04-23T23:03:06.955Z,9.63
2019-04-23T23:06:09.036Z,9.62
2019-04-23T23:08:14.142Z,9.64
2019-04-23T23:10:50.760Z,9.65
2019-04-23T23:13:20.718Z,9.72
2019-04-23T23:15:53.380Z,9.67
2019-04-23T23:18:19.676Z,9.69
2019-04-23T23:20:55.830Z,9.72
2019-04-23T23:23:24.161Z,9.73
2019-04-23T23:25:56.794Z,9.79
2019-04-23T23:28:31.455Z,9.84
2019-04-23T23:31:05.347Z,9.84
2019-04-23T23:38:41.661Z,9.84
2019-04-23T23:41:10.459Z,9.82
2019-04-23T23:43:29.942Z,9.85
2019-04-23T23:46:18.611Z,9.89
2019-04-23T23:48:39.312Z,9.97
2019-04-23T23:51:17.042Z,9.98
2019-04-23T23:53:51.268Z,9.97
